Time;durP1;ratioP1;P1;durP2;ratioP2;P2;SDS_P1;SDS_P2;PMS_P1;PMS_P2;Temp;Humidity;BMP_temperature;BMP_pressure;BME280_temperature;BME280_humidity;BME280_pressure;Samples;Min_cycle;Max_cycle;Signal;HPM_P1;HPM_P2
2023/09/22 00:01:12;;;;;;;1.00;1.00;;;18.30;99.90;;;;;;939762;148;27417;-75
2023/09/22 00:03:39;;;;;;;1.17;1.05;;;18.30;99.90;;;;;;940472;148;27281;-76
2023/09/22 00:06:05;;;;;;;0.90;0.88;;;18.30;99.90;;;;;;939828;148;27350;-75
2023/09/22 00:08:32;;;;;;;1.05;0.98;;;18.30;99.90;;;;;;939803;148;28279;-76
2023/09/22 00:10:58;;;;;;;1.12;1.02;;;18.30;99.90;;;;;;941061;148;27680;-76
2023/09/22 00:13:25;;;;;;;0.98;0.93;;;18.30;99.90;;;;;;940633;149;27395;-75
2023/09/22 00:15:52;;;;;;;0.90;0.90;;;18.30;99.90;;;;;;935486;148;27372;-76
2023/09/22 00:18:18;;;;;;;0.78;0.78;;;18.30;99.90;;;;;;938435;149;27394;-75
2023/09/22 00:20:45;;;;;;;1.05;0.88;;;18.30;99.90;;;;;;938158;149;27363;-75
2023/09/22 00:23:14;;;;;;;1.52;1.12;;;18.30;99.90;;;;;;936069;149;27343;-75
2023/09/22 00:25:38;;;;;;;1.12;0.98;;;18.30;99.90;;;;;;938393;148;27386;-76
2023/09/22 00:28:05;;;;;;;1.12;1.02;;;18.30;99.90;;;;;;934545;148;27374;-75
2023/09/22 00:30:31;;;;;;;1.00;0.90;;;18.30;99.90;;;;;;921217;152;27361;-75
2023/09/22 00:32:58;;;;;;;2.77;1.25;;;18.30;99.90;;;;;;921270;152;27356;-75
2023/09/22 00:35:25;;;;;;;1.10;1.00;;;18.40;99.90;;;;;;920573;150;27328;-75
2023/09/22 00:37:51;;;;;;;1.20;0.85;;;18.40;99.90;;;;;;923125;151;27414;-75
2023/09/22 00:40:18;;;;;;;1.15;0.82;;;18.40;99.90;;;;;;930230;150;27469;-76
2023/09/22 00:42:45;;;;;;;0.90;0.90;;;18.40;99.90;;;;;;930590;150;27437;-76
2023/09/22 00:45:11;;;;;;;1.00;1.00;;;18.40;99.90;;;;;;928691;150;27346;-75
2023/09/22 00:47:37;;;;;;;0.95;0.90;;;18.40;99.90;;;;;;930153;150;27449;-75
2023/09/22 00:50:05;;;;;;;0.90;0.80;;;18.50;99.90;;;;;;929949;150;27353;-75
2023/09/22 00:52:31;;;;;;;2.87;0.70;;;18.50;99.90;;;;;;930677;150;27331;-76
2023/09/22 00:54:57;;;;;;;1.40;1.07;;;18.50;99.90;;;;;;929802;149;28197;-76
2023/09/22 00:57:24;;;;;;;0.80;0.80;;;18.50;99.90;;;;;;931796;150;27384;-76
2023/09/22 00:59:50;;;;;;;0.72;0.72;;;18.60;99.90;;;;;;929536;150;27367;-75
2023/09/22 01:02:17;;;;;;;1.85;1.15;;;18.60;99.90;;;;;;929434;150;27810;-76
2023/09/22 01:04:43;;;;;;;1.05;0.70;;;18.60;99.90;;;;;;930123;150;27312;-76
2023/09/22 01:07:10;;;;;;;1.62;0.82;;;18.60;99.90;;;;;;928367;150;27399;-78
2023/09/22 01:09:37;;;;;;;1.27;0.80;;;18.60;99.90;;;;;;931245;149;27372;-75
2023/09/22 01:12:03;;;;;;;1.00;0.78;;;18.60;99.90;;;;;;930403;150;27400;-78
2023/09/22 01:14:30;;;;;;;0.80;0.80;;;18.60;99.90;;;;;;930453;150;27746;-78
2023/09/22 01:16:56;;;;;;;0.70;0.70;;;18.70;99.90;;;;;;929590;150;27393;-77
2023/09/22 01:19:23;;;;;;;1.47;1.10;;;18.70;99.90;;;;;;931185;150;27262;-77
2023/09/22 01:21:50;;;;;;;0.98;0.80;;;18.70;99.90;;;;;;931146;150;27417;-77
2023/09/22 01:24:16;;;;;;;0.85;0.85;;;18.70;99.90;;;;;;932023;150;27464;-77
2023/09/22 01:26:43;;;;;;;1.15;1.02;;;18.60;99.90;;;;;;931741;150;27334;-76
2023/09/22 01:29:09;;;;;;;0.80;0.80;;;18.60;99.90;;;;;;932228;150;27287;-76
2023/09/22 01:31:36;;;;;;;0.98;0.80;;;18.60;99.90;;;;;;932022;150;27348;-75
2023/09/22 01:34:03;;;;;;;0.68;0.68;;;18.60;99.90;;;;;;931599;150;27390;-78
2023/09/22 01:36:29;;;;;;;0.70;0.62;;;18.50;99.90;;;;;;930437;150;27323;-75
2023/09/22 01:38:57;;;;;;;1.07;0.98;;;18.40;99.90;;;;;;929246;150;27360;-77
2023/09/22 01:41:22;;;;;;;1.17;1.00;;;18.40;99.90;;;;;;931176;150;27409;-77
2023/09/22 01:43:49;;;;;;;0.68;0.68;;;18.30;99.90;;;;;;939668;147;27904;-77
2023/09/22 01:46:16;;;;;;;1.60;1.20;;;18.30;99.90;;;;;;921051;151;27476;-77
2023/09/22 01:48:42;;;;;;;1.00;0.90;;;18.20;99.90;;;;;;915100;151;27351;-77
2023/09/22 01:51:09;;;;;;;0.95;0.90;;;18.10;99.90;;;;;;921253;151;27406;-77
2023/09/22 01:53:35;;;;;;;2.00;1.00;;;18.00;99.90;;;;;;918471;151;27394;-76
2023/09/22 01:56:02;;;;;;;1.10;1.00;;;18.00;99.90;;;;;;931412;149;27363;-78
2023/09/22 01:58:28;;;;;;;1.00;1.00;;;17.90;99.90;;;;;;930725;150;27470;-78
2023/09/22 02:00:56;;;;;;;0.98;0.82;;;17.90;99.90;;;;;;931378;150;27307;-78
2023/09/22 02:03:22;;;;;;;0.90;0.90;;;17.80;99.90;;;;;;931785;150;27455;-77
2023/09/22 02:05:48;;;;;;;1.17;0.93;;;17.70;99.90;;;;;;931014;150;27426;-75
2023/09/22 02:08:15;;;;;;;2.00;0.85;;;17.70;99.90;;;;;;930751;150;27424;-77
2023/09/22 02:10:41;;;;;;;1.37;0.90;;;17.60;99.90;;;;;;931060;150;27327;-77
2023/09/22 02:13:09;;;;;;;1.32;1.15;;;17.60;99.90;;;;;;921872;151;27887;-77
2023/09/22 02:15:35;;;;;;;0.75;0.75;;;17.50;99.90;;;;;;931437;148;27786;-75
2023/09/22 02:18:01;;;;;;;2.62;1.00;;;17.50;99.90;;;;;;933634;147;27496;-75
2023/09/22 02:20:28;;;;;;;1.20;1.07;;;17.50;99.90;;;;;;919687;152;27381;-75
2023/09/22 02:22:55;;;;;;;3.30;1.07;;;17.50;99.90;;;;;;938065;149;27387;-75
2023/09/22 02:25:21;;;;;;;1.60;1.10;;;17.40;99.90;;;;;;943567;149;27422;-75
2023/09/22 02:27:52;;;;;;;1.67;1.00;;;17.40;99.90;;;;;;943495;149;27326;-75
2023/09/22 02:30:17;;;;;;;1.00;0.85;;;17.40;99.90;;;;;;943093;149;27355;-75
2023/09/22 02:32:43;;;;;;;3.52;1.10;;;17.40;99.90;;;;;;935722;150;27333;-75
2023/09/22 02:35:11;;;;;;;1.40;0.80;;;17.30;99.90;;;;;;915432;148;27404;-75
2023/09/22 02:37:37;;;;;;;0.60;0.60;;;17.30;99.90;;;;;;954615;146;27298;-75
2023/09/22 02:40:03;;;;;;;1.27;0.98;;;17.30;99.90;;;;;;947161;147;27450;-75
2023/09/22 02:42:30;;;;;;;2.72;1.00;;;17.20;99.90;;;;;;939054;149;27306;-75
2023/09/22 02:44:56;;;;;;;1.47;1.10;;;17.20;99.90;;;;;;954750;146;27410;-75
2023/09/22 02:47:23;;;;;;;1.67;1.00;;;17.20;99.90;;;;;;954244;147;27381;-75
2023/09/22 02:49:49;;;;;;;0.82;0.82;;;17.10;99.90;;;;;;931098;149;27566;-75
2023/09/22 02:52:16;;;;;;;1.20;1.10;;;17.10;99.90;;;;;;957339;146;27348;-75
2023/09/22 02:54:43;;;;;;;0.62;0.62;;;17.10;99.90;;;;;;945087;147;27343;-75
2023/09/22 02:57:09;;;;;;;0.70;0.70;;;17.10;99.90;;;;;;937640;150;27431;-75
2023/09/22 02:59:36;;;;;;;1.62;0.90;;;17.00;99.90;;;;;;953786;146;27370;-75
2023/09/22 03:02:02;;;;;;;1.95;1.10;;;17.00;99.90;;;;;;936200;149;27791;-75
2023/09/22 03:04:30;;;;;;;1.37;1.17;;;17.00;99.90;;;;;;931568;150;27474;-75
2023/09/22 03:06:56;;;;;;;1.60;1.10;;;17.00;99.90;;;;;;927588;149;27356;-75
2023/09/22 03:09:22;;;;;;;0.80;0.80;;;17.00;99.90;;;;;;940210;148;27385;-76
2023/09/22 03:11:49;;;;;;;0.93;0.93;;;16.90;99.90;;;;;;949296;147;27449;-75
2023/09/22 03:14:15;;;;;;;2.47;1.05;;;16.90;99.90;;;;;;956188;146;27379;-75
2023/09/22 03:16:42;;;;;;;1.10;1.00;;;16.90;99.90;;;;;;951324;146;27301;-75
2023/09/22 03:19:09;;;;;;;0.93;0.90;;;16.90;99.90;;;;;;935317;149;27388;-75
2023/09/22 03:21:35;;;;;;;1.12;1.02;;;16.80;99.90;;;;;;932725;151;27379;-75
2023/09/22 03:24:02;;;;;;;0.95;0.90;;;16.80;99.90;;;;;;931668;153;27355;-75
2023/09/22 03:26:29;;;;;;;2.08;1.12;;;16.80;99.90;;;;;;934540;151;27263;-77
2023/09/22 03:28:55;;;;;;;0.98;0.90;;;16.70;99.90;;;;;;944028;149;27266;-77
2023/09/22 03:31:23;;;;;;;1.40;1.00;;;16.70;99.90;;;;;;942345;149;27357;-76
2023/09/22 03:33:48;;;;;;;1.00;1.00;;;16.70;99.90;;;;;;928788;150;27399;-77
2023/09/22 03:36:15;;;;;;;1.77;1.05;;;16.70;99.90;;;;;;950466;147;27397;-78
2023/09/22 03:38:41;;;;;;;1.40;1.12;;;16.70;99.90;;;;;;939139;149;27359;-77
2023/09/22 03:41:08;;;;;;;1.10;1.00;;;16.60;99.90;;;;;;950393;146;27305;-77
2023/09/22 03:43:35;;;;;;;1.20;1.10;;;16.60;99.90;;;;;;935330;149;27443;-77
2023/09/22 03:46:01;;;;;;;3.45;1.40;;;16.60;99.90;;;;;;948320;146;27474;-77
2023/09/22 03:48:28;;;;;;;1.22;1.07;;;16.60;99.90;;;;;;956032;146;27320;-77
2023/09/22 03:50:54;;;;;;;1.32;1.10;;;16.50;99.90;;;;;;944483;148;27432;-77
2023/09/22 03:53:22;;;;;;;0.98;0.88;;;16.50;99.90;;;;;;955285;146;27310;-75
2023/09/22 03:55:48;;;;;;;1.22;1.12;;;16.50;99.90;;;;;;955330;146;27368;-77
2023/09/22 03:58:16;;;;;;;1.20;1.05;;;16.50;99.90;;;;;;955172;146;27387;-77
2023/09/22 04:00:41;;;;;;;0.88;0.80;;;16.40;99.90;;;;;;951435;146;27382;-77
2023/09/22 04:03:09;;;;;;;1.05;1.02;;;16.40;99.90;;;;;;954274;146;27370;-75
2023/09/22 04:05:34;;;;;;;1.17;1.02;;;16.40;99.90;;;;;;940727;148;27420;-76
2023/09/22 04:08:00;;;;;;;1.75;1.20;;;16.40;99.90;;;;;;955080;146;27294;-78
2023/09/22 04:10:27;;;;;;;0.95;0.95;;;16.40;99.90;;;;;;955357;146;27297;-78
2023/09/22 04:12:53;;;;;;;1.17;1.07;;;16.40;99.90;;;;;;949000;146;27944;-75
2023/09/22 04:15:23;;;;;;;2.42;0.90;;;16.40;99.90;;;;;;936438;150;27696;-76
2023/09/22 04:17:47;;;;;;;1.45;1.20;;;16.40;99.90;;;;;;953806;146;27802;-78
2023/09/22 04:20:17;;;;;;;1.67;1.12;;;16.40;99.90;;;;;;934397;149;27373;-78
2023/09/22 04:22:41;;;;;;;2.55;1.20;;;16.40;99.90;;;;;;936737;149;27434;-76
2023/09/22 04:25:18;;;;;;;1.80;0.90;;;16.40;99.90;;;;;;933214;149;27451;-75
2023/09/22 04:27:42;;;;;;;1.25;1.00;;;16.40;99.90;;;;;;941138;148;27464;-77
2023/09/22 04:30:07;;;;;;;2.45;1.15;;;16.40;99.90;;;;;;957527;146;27325;-76
2023/09/22 04:32:33;;;;;;;2.52;1.17;;;16.40;99.90;;;;;;935799;149;27335;-78
2023/09/22 04:34:58;;;;;;;2.08;1.07;;;16.40;99.90;;;;;;939915;149;27478;-77
2023/09/22 04:37:24;;;;;;;1.52;0.90;;;16.40;99.90;;;;;;952360;146;28184;-75
2023/09/22 04:39:52;;;;;;;1.87;1.10;;;16.40;99.90;;;;;;934242;149;27385;-75
2023/09/22 04:42:18;;;;;;;1.00;1.00;;;16.40;99.90;;;;;;937412;145;27375;-75
2023/09/22 04:44:45;;;;;;;1.15;1.10;;;16.30;99.90;;;;;;947871;148;27331;-75
2023/09/22 04:47:11;;;;;;;2.67;1.30;;;16.30;99.90;;;;;;945580;148;27441;-75
2023/09/22 04:49:37;;;;;;;1.35;1.02;;;16.30;99.90;;;;;;940202;148;27410;-75
2023/09/22 04:52:04;;;;;;;3.47;1.37;;;16.30;99.90;;;;;;951762;146;27284;-76
2023/09/22 04:54:31;;;;;;;2.10;0.90;;;16.30;99.90;;;;;;939148;149;27450;-75
2023/09/22 04:56:57;;;;;;;1.07;0.95;;;16.30;99.90;;;;;;944634;147;27470;-75
2023/09/22 04:59:24;;;;;;;2.25;1.27;;;16.30;99.90;;;;;;933886;149;27412;-75
2023/09/22 05:01:50;;;;;;;1.07;0.98;;;16.20;99.90;;;;;;933883;149;27439;-76
2023/09/22 05:04:17;;;;;;;1.45;1.30;;;16.20;99.90;;;;;;934289;149;27332;-76
2023/09/22 05:06:44;;;;;;;1.07;1.07;;;16.20;99.90;;;;;;946092;147;27340;-75
2023/09/22 05:09:10;;;;;;;1.50;1.40;;;16.20;99.90;;;;;;951203;146;27398;-75
2023/09/22 05:11:37;;;;;;;2.25;1.20;;;16.20;99.90;;;;;;933849;149;27404;-75
2023/09/22 05:14:06;;;;;;;1.85;1.00;;;16.10;99.90;;;;;;945661;147;27383;-75
2023/09/22 05:16:32;;;;;;;1.10;1.00;;;16.10;99.90;;;;;;933732;149;27362;-75
2023/09/22 05:19:02;;;;;;;3.33;1.05;;;16.20;99.90;;;;;;936776;148;27924;-75
2023/09/22 05:21:29;;;;;;;1.00;1.00;;;16.10;99.90;;;;;;939356;149;27360;-76
2023/09/22 05:23:55;;;;;;;1.35;1.05;;;16.10;99.90;;;;;;934998;149;27354;-75
2023/09/22 05:26:22;;;;;;;1.32;1.22;;;16.10;99.90;;;;;;935561;149;27334;-76
2023/09/22 05:28:51;;;;;;;1.27;1.17;;;16.10;99.90;;;;;;941052;148;27364;-76
2023/09/22 05:31:16;;;;;;;1.25;1.15;;;16.10;99.90;;;;;;932674;150;27479;-75
2023/09/22 05:33:42;;;;;;;1.22;1.12;;;16.10;99.90;;;;;;944271;148;27409;-75
2023/09/22 05:36:08;;;;;;;1.15;1.00;;;16.20;99.90;;;;;;951895;146;27242;-75
2023/09/22 05:38:35;;;;;;;1.20;1.10;;;16.10;99.90;;;;;;951896;146;27336;-76
2023/09/22 05:41:02;;;;;;;1.32;1.00;;;16.20;99.90;;;;;;953221;146;27296;-75
2023/09/22 05:43:30;;;;;;;1.12;1.05;;;16.20;99.90;;;;;;951102;147;27240;-75
2023/09/22 05:45:55;;;;;;;1.35;1.20;;;16.20;99.90;;;;;;950114;147;27315;-75
2023/09/22 05:48:21;;;;;;;2.80;1.15;;;16.20;99.90;;;;;;944170;147;27421;-75
2023/09/22 05:50:57;;;;;;;1.27;1.17;;;16.20;99.90;;;;;;946979;147;27340;-76
2023/09/22 05:53:25;;;;;;;1.42;1.32;;;16.30;99.90;;;;;;951400;147;27832;-75
2023/09/22 05:55:50;;;;;;;1.65;1.37;;;16.30;99.90;;;;;;948856;147;27332;-77
2023/09/22 05:58:17;;;;;;;2.10;1.67;;;16.40;99.90;;;;;;949991;147;27307;-77
2023/09/22 06:00:44;;;;;;;1.17;1.12;;;16.40;99.90;;;;;;950009;147;27425;-76
2023/09/22 06:03:10;;;;;;;1.05;0.98;;;16.50;99.90;;;;;;948596;147;27346;-77
2023/09/22 06:05:39;;;;;;;1.77;0.90;;;16.50;99.90;;;;;;933595;149;27334;-75
2023/09/22 06:08:06;;;;;;;1.50;1.40;;;16.60;99.90;;;;;;949215;147;27838;-77
2023/09/22 06:10:33;;;;;;;1.47;1.37;;;16.60;99.90;;;;;;935952;149;27394;-74
2023/09/22 06:12:59;;;;;;;1.72;1.10;;;16.60;99.90;;;;;;932907;149;27457;-77
2023/09/22 06:15:26;;;;;;;1.20;1.10;;;16.70;99.90;;;;;;950646;147;27410;-77
2023/09/22 06:17:52;;;;;;;1.50;1.20;;;16.70;99.90;;;;;;949243;147;27321;-77
2023/09/22 06:20:20;;;;;;;0.95;0.90;;;16.70;99.90;;;;;;946537;146;27385;-76
2023/09/22 06:22:47;;;;;;;1.22;1.12;;;16.80;99.90;;;;;;944790;149;27374;-76
2023/09/22 06:25:13;;;;;;;1.10;1.00;;;16.80;99.90;;;;;;948711;148;27350;-77
2023/09/22 06:27:39;;;;;;;1.35;1.02;;;16.90;99.90;;;;;;953200;146;27403;-76
2023/09/22 06:30:10;;;;;;;1.20;1.10;;;17.00;99.90;;;;;;944031;147;27324;-76
2023/09/22 06:32:32;;;;;;;1.92;1.40;;;17.00;99.90;;;;;;934250;149;27297;-77
2023/09/22 06:34:59;;;;;;;6.33;1.27;;;17.10;99.90;;;;;;945672;149;27360;-77
2023/09/22 06:37:25;;;;;;;1.77;1.47;;;17.20;99.90;;;;;;945674;149;27508;-77
2023/09/22 06:39:52;;;;;;;1.40;1.30;;;17.30;99.90;;;;;;944213;148;27365;-77
2023/09/22 06:42:19;;;;;;;1.30;1.07;;;17.40;99.90;;;;;;945091;149;27368;-77
2023/09/22 06:44:45;;;;;;;1.72;1.62;;;17.50;99.90;;;;;;947340;149;27860;-75
2023/09/22 06:47:12;;;;;;;2.25;1.00;;;17.50;99.90;;;;;;945431;149;27360;-77
2023/09/22 06:49:38;;;;;;;3.37;1.10;;;17.60;99.90;;;;;;945489;149;27352;-77
2023/09/22 06:52:07;;;;;;;1.25;0.90;;;17.70;99.90;;;;;;944993;149;27346;-77
2023/09/22 06:54:32;;;;;;;1.10;1.00;;;17.80;99.90;;;;;;945965;148;27383;-75
2023/09/22 06:57:01;;;;;;;1.52;1.00;;;17.80;99.90;;;;;;945346;148;27476;-77
2023/09/22 06:59:25;;;;;;;0.80;0.80;;;17.90;99.90;;;;;;945577;148;27376;-77
2023/09/22 07:01:51;;;;;;;1.52;1.25;;;17.90;99.90;;;;;;945981;149;27421;-77
2023/09/22 07:04:19;;;;;;;0.90;0.90;;;18.00;99.90;;;;;;945184;149;27328;-77
2023/09/22 07:06:44;;;;;;;1.70;1.05;;;18.00;99.90;;;;;;943042;148;27360;-77
2023/09/22 07:09:11;;;;;;;3.58;1.27;;;18.00;99.90;;;;;;942609;148;27508;-77
2023/09/22 07:11:40;;;;;;;1.85;1.02;;;18.00;99.90;;;;;;941887;148;27330;-77
2023/09/22 07:14:07;;;;;;;1.85;1.00;;;18.10;99.90;;;;;;950115;147;29135;-77
2023/09/22 07:16:34;;;;;;;0.90;0.90;;;18.10;99.90;;;;;;951572;147;27361;-76
2023/09/22 07:19:00;;;;;;;1.02;0.98;;;18.10;99.90;;;;;;932086;150;27358;-76
2023/09/22 07:21:27;;;;;;;2.40;1.00;;;18.20;99.90;;;;;;952688;147;27345;-76
2023/09/22 07:23:56;;;;;;;1.60;1.00;;;18.20;99.90;;;;;;931037;147;27469;-76
2023/09/22 07:26:20;;;;;;;1.15;0.85;;;18.30;99.90;;;;;;923938;151;27380;-77
2023/09/22 07:28:47;;;;;;;2.02;1.30;;;18.40;99.90;;;;;;906343;154;27423;-77
2023/09/22 07:31:13;;;;;;;1.75;1.20;;;18.50;99.90;;;;;;950013;147;27439;-77
2023/09/22 07:33:40;;;;;;;4.10;1.22;;;18.70;99.90;;;;;;945932;147;27402;-77
2023/09/22 07:36:07;;;;;;;1.32;1.22;;;18.70;99.90;;;;;;940111;147;27386;-77
2023/09/22 07:38:33;;;;;;;2.10;1.20;;;18.80;99.90;;;;;;942257;148;27497;-77
2023/09/22 07:41:00;;;;;;;1.50;1.30;;;18.90;99.90;;;;;;920250;150;27257;-77
2023/09/22 07:43:29;;;;;;;1.42;1.25;;;18.90;99.90;;;;;;904376;152;27774;-77
2023/09/22 07:45:53;;;;;;;1.65;1.17;;;19.00;99.90;;;;;;942053;147;27344;-77
2023/09/22 07:48:19;;;;;;;2.55;1.22;;;19.10;99.90;;;;;;940289;148;27355;-77
2023/09/22 07:50:46;;;;;;;3.47;1.50;;;19.10;99.90;;;;;;940933;147;27733;-77
2023/09/22 07:53:12;;;;;;;6.05;1.52;;;19.20;99.90;;;;;;943752;146;27368;-77
2023/09/22 07:55:41;;;;;;;4.08;1.15;;;19.20;99.90;;;;;;941723;146;27341;-77
2023/09/22 07:58:06;;;;;;;1.82;1.05;;;19.30;99.90;;;;;;939926;147;27426;-77
2023/09/22 08:00:32;;;;;;;1.00;0.90;;;19.40;99.90;;;;;;941619;148;27317;-77
2023/09/22 08:03:03;;;;;;;0.90;0.90;;;19.50;99.90;;;;;;943418;148;27305;-77
2023/09/22 08:05:25;;;;;;;1.12;1.02;;;19.60;99.90;;;;;;941159;147;27358;-77
2023/09/22 08:07:53;;;;;;;1.40;1.07;;;19.70;99.90;;;;;;941842;148;27273;-77
2023/09/22 08:10:22;;;;;;;1.85;1.35;;;19.80;99.90;;;;;;941023;148;27357;-77
2023/09/22 08:12:45;;;;;;;1.05;1.05;;;19.90;99.90;;;;;;943204;148;27436;-77
2023/09/22 08:15:14;;;;;;;1.07;1.07;;;20.10;99.90;;;;;;940511;147;27423;-77
2023/09/22 08:17:38;;;;;;;1.87;0.90;;;20.30;99.90;;;;;;941129;147;27380;-77
2023/09/22 08:20:07;;;;;;;0.95;0.95;;;20.40;99.90;;;;;;939959;148;27399;-77
2023/09/22 08:22:32;;;;;;;0.70;0.70;;;20.60;99.90;;;;;;943691;146;27416;-77
2023/09/22 08:24:58;;;;;;;1.72;0.80;;;20.70;99.90;;;;;;937103;149;27312;-77
2023/09/22 08:27:25;;;;;;;0.90;0.90;;;20.90;99.90;;;;;;937325;149;27372;-77
2023/09/22 08:29:51;;;;;;;1.10;1.00;;;21.10;99.90;;;;;;937996;148;27482;-77
2023/09/22 08:32:18;;;;;;;0.80;0.80;;;21.30;99.90;;;;;;949438;146;27424;-77
2023/09/22 08:34:46;;;;;;;0.90;0.80;;;21.50;99.90;;;;;;949550;146;27374;-77
2023/09/22 08:37:11;;;;;;;0.80;0.75;;;21.70;99.90;;;;;;938482;148;27424;-77
2023/09/22 08:39:38;;;;;;;1.87;1.15;;;21.90;99.90;;;;;;954764;146;27864;-77
2023/09/22 08:42:04;;;;;;;1.00;1.00;;;22.00;99.90;;;;;;956829;146;27697;-77
2023/09/22 08:44:32;;;;;;;1.05;0.93;;;22.10;99.50;;;;;;955903;146;27348;-77
2023/09/22 08:46:57;;;;;;;0.98;0.78;;;22.20;98.60;;;;;;935897;149;27315;-77
2023/09/22 08:49:24;;;;;;;1.27;0.60;;;22.20;97.50;;;;;;935668;149;27282;-77
2023/09/22 08:51:51;;;;;;;1.07;0.85;;;22.20;96.90;;;;;;934926;149;27318;-77
2023/09/22 08:54:18;;;;;;;0.57;0.57;;;22.20;96.30;;;;;;953703;147;27344;-77
2023/09/22 08:56:44;;;;;;;1.10;0.60;;;22.20;94.80;;;;;;941513;149;27337;-77
2023/09/22 08:59:10;;;;;;;1.05;0.62;;;22.10;94.60;;;;;;960321;146;27304;-77
2023/09/22 09:01:37;;;;;;;0.80;0.60;;;22.10;94.90;;;;;;959713;146;27356;-77
2023/09/22 09:04:29;;;;;;;2.45;0.60;;;22.10;94.10;;;;;;955300;146;27459;-77
2023/09/22 09:06:55;;;;;;;0.68;0.53;;;22.00;94.10;;;;;;952614;146;27917;-77
2023/09/22 09:09:21;;;;;;;0.78;0.60;;;22.10;94.20;;;;;;947030;149;28834;-77
2023/09/22 09:11:57;;;;;;;0.98;0.80;;;22.10;95.50;;;;;;955276;146;27365;-77
2023/09/22 09:14:28;;;;;;;0.80;0.80;;;22.30;95.40;;;;;;951139;148;27268;-77
2023/09/22 09:16:50;;;;;;;1.82;0.82;;;22.40;95.20;;;;;;943297;148;27385;-77
2023/09/22 09:19:17;;;;;;;0.70;0.68;;;22.60;94.90;;;;;;940099;149;27460;-77
2023/09/22 09:22:02;;;;;;;1.95;0.55;;;22.80;93.80;;;;;;931221;150;27339;-77
2023/09/22 09:24:28;;;;;;;0.55;0.55;;;23.00;92.80;;;;;;947812;147;27387;-77
2023/09/22 09:26:55;;;;;;;0.95;0.55;;;23.30;93.00;;;;;;935378;151;28090;-77
2023/09/22 09:29:27;;;;;;;2.95;0.75;;;23.50;93.10;;;;;;928161;151;27430;-77
2023/09/22 09:31:55;;;;;;;0.95;0.62;;;23.80;92.20;;;;;;945898;149;27337;-77
2023/09/22 09:34:23;;;;;;;0.30;0.30;;;24.10;91.90;;;;;;947618;149;27254;-77
2023/09/22 09:36:49;;;;;;;1.02;0.55;;;24.50;89.50;;;;;;928289;150;27424;-79
2023/09/22 09:39:14;;;;;;;0.33;0.33;;;24.80;90.50;;;;;;929478;150;27425;-80
2023/09/22 09:41:40;;;;;;;1.00;0.45;;;25.10;88.30;;;;;;929620;151;28584;-79
2023/09/22 09:44:07;;;;;;;0.65;0.47;;;25.40;85.70;;;;;;946368;148;27316;-79
2023/09/22 09:46:35;;;;;;;0.47;0.40;;;25.70;81.50;;;;;;947170;149;27307;-79
2023/09/22 09:49:00;;;;;;;2.00;0.80;;;25.80;78.70;;;;;;946773;149;27342;-76
2023/09/22 09:51:27;;;;;;;1.65;0.50;;;25.90;76.70;;;;;;931184;153;27452;-79
2023/09/22 09:53:53;;;;;;;0.68;0.50;;;25.80;73.50;;;;;;946749;149;27439;-80
2023/09/22 09:56:20;;;;;;;0.75;0.40;;;25.70;72.90;;;;;;923726;152;27317;-79
2023/09/22 09:58:47;;;;;;;0.95;0.60;;;25.70;72.30;;;;;;935578;151;27316;-79
2023/09/22 10:01:13;;;;;;;0.65;0.57;;;25.50;72.00;;;;;;932761;152;27473;-80
2023/09/22 10:03:40;;;;;;;0.50;0.50;;;25.50;72.40;;;;;;932873;149;27358;-78
2023/09/22 10:06:09;;;;;;;0.98;0.78;;;25.40;71.80;;;;;;929539;151;27327;-79
2023/09/22 10:08:33;;;;;;;1.40;0.70;;;25.40;71.80;;;;;;943122;149;27272;-80
2023/09/22 10:10:59;;;;;;;0.68;0.68;;;25.40;72.10;;;;;;948345;149;27426;-76
2023/09/22 10:13:26;;;;;;;0.55;0.55;;;25.50;72.40;;;;;;945051;149;27426;-80
2023/09/22 10:15:58;;;;;;;1.05;0.68;;;25.50;72.10;;;;;;937993;151;27363;-80
2023/09/22 10:18:46;;;;;;;1.20;0.88;;;25.50;71.70;;;;;;933379;151;27284;-79
2023/09/22 10:21:31;;;;;;;0.50;0.50;;;25.60;71.20;;;;;;903863;152;27343;-78
2023/09/22 10:24:23;;;;;;;1.75;0.60;;;25.60;70.40;;;;;;933166;152;27458;-77
2023/09/22 10:26:58;;;;;;;1.17;0.60;;;25.60;69.60;;;;;;933427;149;27467;-80
2023/09/22 10:29:36;;;;;;;3.62;1.12;;;25.40;69.20;;;;;;932694;149;27428;-80
2023/09/22 10:32:18;;;;;;;1.65;0.68;;;25.30;68.60;;;;;;928790;151;27432;-81
2023/09/22 10:34:51;;;;;;;0.30;0.30;;;25.20;68.40;;;;;;947396;149;27338;-79
2023/09/22 10:37:20;;;;;;;1.60;0.57;;;25.00;68.50;;;;;;923612;152;27349;-80
2023/09/22 10:39:59;;;;;;;0.98;0.60;;;24.90;68.40;;;;;;940429;149;27374;-80
2023/09/22 10:42:26;;;;;;;0.50;0.47;;;24.70;68.80;;;;;;926476;151;27331;-80
2023/09/22 10:44:58;;;;;;;1.62;0.60;;;24.70;69.70;;;;;;948834;149;27437;-80
2023/09/22 10:47:24;;;;;;;0.60;0.60;;;24.60;68.90;;;;;;932400;152;27452;-77
2023/09/22 10:49:51;;;;;;;2.52;0.75;;;24.50;68.20;;;;;;933109;149;27362;-77
2023/09/22 10:52:18;;;;;;;0.90;0.82;;;24.50;68.00;;;;;;933213;149;27327;-77
2023/09/22 10:54:46;;;;;;;2.37;1.10;;;24.50;67.80;;;;;;932995;151;27419;-77
2023/09/22 10:57:23;;;;;;;0.98;0.70;;;24.40;68.00;;;;;;947317;148;27370;-77
2023/09/22 10:59:49;;;;;;;3.08;0.95;;;24.40;68.40;;;;;;946382;149;27365;-78
2023/09/22 11:02:22;;;;;;;1.52;0.75;;;24.40;69.10;;;;;;918090;152;27402;-78
2023/09/22 11:04:49;;;;;;;0.70;0.70;;;24.50;69.00;;;;;;928781;150;27320;-78
2023/09/22 11:07:33;;;;;;;0.65;0.60;;;24.50;68.60;;;;;;942545;149;27321;-78
2023/09/22 11:10:00;;;;;;;1.12;0.80;;;24.60;68.40;;;;;;947064;149;27505;-78
2023/09/22 11:12:29;;;;;;;1.10;0.70;;;24.60;68.10;;;;;;939751;149;27314;-78
2023/09/22 11:14:56;;;;;;;0.95;0.75;;;24.70;67.50;;;;;;940378;149;27401;-78
2023/09/22 11:17:22;;;;;;;2.47;0.90;;;24.70;67.00;;;;;;942606;149;27854;-78
2023/09/22 11:19:55;;;;;;;1.07;0.80;;;24.70;67.00;;;;;;939842;149;27335;-78
2023/09/22 11:22:23;;;;;;;1.42;0.90;;;24.60;66.80;;;;;;933965;151;27360;-78
2023/09/22 11:24:48;;;;;;;0.70;0.70;;;24.60;67.60;;;;;;947192;149;28027;-78
2023/09/22 11:27:14;;;;;;;0.82;0.82;;;24.60;67.10;;;;;;932337;151;27353;-78
2023/09/22 11:29:41;;;;;;;0.60;0.42;;;24.70;66.80;;;;;;932042;151;27363;-78
2023/09/22 11:32:08;;;;;;;0.57;0.57;;;24.70;67.20;;;;;;929574;151;27337;-79
2023/09/22 11:34:34;;;;;;;0.65;0.60;;;24.80;66.80;;;;;;930247;151;27334;-78
2023/09/22 11:37:01;;;;;;;0.80;0.80;;;24.80;66.50;;;;;;932768;150;27677;-78
2023/09/22 11:39:28;;;;;;;1.70;0.90;;;24.90;66.00;;;;;;931229;150;27363;-78
2023/09/22 11:41:54;;;;;;;1.95;0.78;;;24.90;64.80;;;;;;933644;148;27345;-78
2023/09/22 11:44:21;;;;;;;1.22;1.00;;;24.90;65.30;;;;;;950685;146;27348;-78
2023/09/22 11:46:47;;;;;;;2.22;0.80;;;24.90;65.00;;;;;;953767;146;27281;-78
2023/09/22 11:49:14;;;;;;;0.90;0.82;;;24.90;64.80;;;;;;938012;149;27323;-78
2023/09/22 11:51:40;;;;;;;1.02;0.75;;;24.90;64.50;;;;;;931076;151;27342;-78
2023/09/22 11:54:07;;;;;;;0.88;0.80;;;24.90;64.30;;;;;;939019;148;27370;-78
2023/09/22 11:56:33;;;;;;;1.05;0.95;;;24.90;64.60;;;;;;939438;148;27368;-75
2023/09/22 11:59:17;;;;;;;1.72;1.00;;;24.90;64.60;;;;;;950625;146;27406;-78
2023/09/22 12:01:42;;;;;;;0.85;0.70;;;24.80;64.20;;;;;;944123;148;27387;-75
2023/09/22 12:04:12;;;;;;;1.22;0.90;;;24.80;64.30;;;;;;938368;149;27352;-75
2023/09/22 12:06:40;;;;;;;1.37;0.95;;;24.80;64.30;;;;;;949262;146;27436;-75
2023/09/22 12:09:05;;;;;;;1.92;0.80;;;24.80;64.40;;;;;;951706;146;27365;-75
2023/09/22 12:11:31;;;;;;;0.90;0.72;;;24.90;64.30;;;;;;950986;146;27399;-76
2023/09/22 12:13:58;;;;;;;2.47;1.00;;;24.90;63.50;;;;;;938083;149;27370;-74
2023/09/22 12:16:25;;;;;;;1.75;1.00;;;24.90;64.30;;;;;;942921;148;28236;-74
2023/09/22 12:18:52;;;;;;;1.05;0.95;;;25.00;64.10;;;;;;942778;149;27413;-78
2023/09/22 12:21:18;;;;;;;1.20;0.80;;;25.00;63.70;;;;;;943428;148;27432;-76
2023/09/22 12:23:44;;;;;;;1.85;0.70;;;25.10;63.40;;;;;;942743;149;27470;-75
2023/09/22 12:26:11;;;;;;;0.90;0.90;;;25.10;63.00;;;;;;942924;149;27485;-74
2023/09/22 12:28:37;;;;;;;1.10;0.70;;;25.20;62.50;;;;;;943260;149;27344;-75
2023/09/22 12:31:04;;;;;;;0.75;0.57;;;25.20;62.40;;;;;;943189;148;27268;-75
2023/09/22 12:33:31;;;;;;;0.60;0.60;;;25.30;62.10;;;;;;939945;147;27335;-77
2023/09/22 12:35:57;;;;;;;1.07;0.68;;;25.30;61.70;;;;;;951748;147;27338;-74
2023/09/22 12:38:24;;;;;;;1.80;0.60;;;25.30;61.20;;;;;;950233;147;27405;-74
2023/09/22 12:40:53;;;;;;;0.95;0.75;;;25.30;61.00;;;;;;946993;145;27432;-74
2023/09/22 12:43:20;;;;;;;0.90;0.90;;;25.30;60.90;;;;;;943722;147;27921;-77
2023/09/22 12:45:46;;;;;;;1.12;1.00;;;25.20;60.50;;;;;;931969;151;27367;-75
2023/09/22 12:48:13;;;;;;;0.85;0.70;;;25.20;60.90;;;;;;937987;149;27333;-74